Time;durP1;ratioP1;P1;durP2;ratioP2;P2;SDS_P1;SDS_P2;PMS_P1;PMS_P2;Temp;Humidity;BMP_temperature;BMP_pressure;BME280_temperature;BME280_humidity;BME280_pressure;Samples;Min_cycle;Max_cycle;Signal;HPM_P1;HPM_P2
2024/04/20 00:00:06;;;;;;;8.23;3.08;;;3.40;99.90;;;;;;5392926;26;19996;-63
2024/04/20 00:02:53;;;;;;;4.40;2.75;;;3.50;99.90;;;;;;5392591;26;20748;-63
2024/04/20 00:05:38;;;;;;;8.32;2.90;;;3.40;99.90;;;;;;5392974;26;20509;-63
2024/04/20 00:08:24;;;;;;;6.67;3.50;;;3.40;99.90;;;;;;5395982;26;20069;-63
2024/04/20 00:11:10;;;;;;;3.85;2.72;;;3.40;99.90;;;;;;5390852;26;20050;-63
2024/04/20 00:13:56;;;;;;;7.07;2.88;;;3.40;99.90;;;;;;5396379;26;20015;-63
2024/04/20 00:16:42;;;;;;;7.07;3.10;;;3.40;99.90;;;;;;5401973;26;20435;-63
2024/04/20 00:19:28;;;;;;;4.95;2.90;;;3.30;99.90;;;;;;5379201;26;20011;-63
2024/04/20 00:22:14;;;;;;;6.63;3.37;;;3.40;99.90;;;;;;5381949;26;20093;-63
2024/04/20 00:25:00;;;;;;;13.07;3.50;;;3.30;99.90;;;;;;5393723;26;20468;-63
2024/04/20 00:27:46;;;;;;;7.43;2.73;;;3.30;99.90;;;;;;5396349;26;20011;-63
2024/04/20 00:30:32;;;;;;;7.10;2.70;;;3.30;99.90;;;;;;5386977;26;20733;-63
2024/04/20 00:33:18;;;;;;;8.45;3.65;;;3.30;99.90;;;;;;5360189;26;20040;-63
2024/04/20 00:36:04;;;;;;;9.20;2.90;;;3.20;99.90;;;;;;5355387;26;20032;-63
2024/04/20 00:38:54;;;;;;;5.85;2.97;;;3.30;99.90;;;;;;5356429;26;20011;-63
2024/04/20 00:41:40;;;;;;;13.80;3.50;;;3.20;99.90;;;;;;5352665;26;20004;-63
2024/04/20 00:44:26;;;;;;;8.43;3.50;;;3.20;99.90;;;;;;5353772;26;20019;-63
2024/04/20 00:47:12;;;;;;;4.90;3.03;;;3.30;99.90;;;;;;5359104;26;20000;-63
2024/04/20 00:49:58;;;;;;;8.65;3.72;;;3.20;99.90;;;;;;5349152;26;20015;-63
2024/04/20 00:52:44;;;;;;;10.07;3.50;;;3.30;99.90;;;;;;5350250;26;20011;-63
2024/04/20 00:55:30;;;;;;;7.83;3.10;;;3.20;99.90;;;;;;5354455;26;20209;-63
2024/04/20 00:58:19;;;;;;;11.35;3.67;;;3.30;99.90;;;;;;5355213;26;20001;-63
2024/04/20 01:01:05;;;;;;;6.07;3.05;;;3.20;99.90;;;;;;5355825;26;20023;-63
2024/04/20 01:03:51;;;;;;;7.95;2.92;;;3.20;99.90;;;;;;5391277;26;19992;-63
2024/04/20 01:06:37;;;;;;;6.97;3.30;;;3.20;99.90;;;;;;5389790;26;20000;-63
2024/04/20 01:09:23;;;;;;;10.10;2.67;;;3.20;99.90;;;;;;5386885;26;19995;-63
2024/04/20 01:12:08;;;;;;;6.80;2.80;;;3.20;99.90;;;;;;5384177;26;20004;-63
2024/04/20 01:14:54;;;;;;;11.47;3.00;;;3.10;99.90;;;;;;5381341;26;20042;-63
2024/04/20 01:17:42;;;;;;;5.47;3.65;;;3.10;99.90;;;;;;5385100;26;20019;-63
2024/04/20 01:20:28;;;;;;;5.60;2.85;;;3.20;99.90;;;;;;5382408;26;20011;-63
2024/04/20 01:23:14;;;;;;;7.43;2.72;;;3.20;99.90;;;;;;5389114;26;20012;-63
2024/04/20 01:26:00;;;;;;;9.33;3.43;;;3.20;99.90;;;;;;5377160;26;20004;-63
2024/04/20 01:28:46;;;;;;;7.32;3.00;;;3.20;99.90;;;;;;5386162;26;20011;-63
2024/04/20 01:31:32;;;;;;;11.17;3.37;;;3.10;99.90;;;;;;5367416;26;19993;-63
2024/04/20 01:34:18;;;;;;;6.05;2.83;;;3.10;99.90;;;;;;5353591;26;20661;-63
2024/04/20 01:37:04;;;;;;;9.97;3.47;;;3.10;99.90;;;;;;5352675;26;20008;-63
2024/04/20 01:39:49;;;;;;;5.40;3.47;;;3.10;99.90;;;;;;5353617;26;20449;-63
2024/04/20 01:42:35;;;;;;;8.52;3.17;;;3.00;99.90;;;;;;5352247;26;20597;-63
2024/04/20 01:45:21;;;;;;;8.20;2.70;;;3.00;99.90;;;;;;5352764;26;20024;-62
2024/04/20 01:48:07;;;;;;;11.38;3.05;;;3.00;99.90;;;;;;5365333;26;20019;-63
2024/04/20 01:50:54;;;;;;;5.93;3.10;;;3.00;99.90;;;;;;5349557;26;20015;-63
2024/04/20 01:53:40;;;;;;;5.90;2.78;;;3.00;99.90;;;;;;5354042;26;20030;-62
2024/04/20 01:56:27;;;;;;;7.47;3.27;;;3.00;99.90;;;;;;5351210;26;20024;-63
2024/04/20 01:59:13;;;;;;;16.98;2.97;;;2.90;99.90;;;;;;5349276;26;20295;-63
2024/04/20 02:01:59;;;;;;;9.93;2.95;;;3.00;99.90;;;;;;5365575;26;20077;-63
2024/04/20 02:04:45;;;;;;;8.30;3.00;;;3.00;99.90;;;;;;5378237;26;20015;-63
2024/04/20 02:07:30;;;;;;;5.05;2.55;;;3.00;99.90;;;;;;5384946;26;20010;-63
2024/04/20 02:10:16;;;;;;;4.87;2.67;;;2.90;99.90;;;;;;5381930;26;20011;-63
2024/04/20 02:13:02;;;;;;;6.50;3.05;;;2.90;99.90;;;;;;5377498;26;20318;-63
2024/04/20 02:15:48;;;;;;;11.25;3.00;;;2.90;99.90;;;;;;5378722;26;19999;-63
2024/04/20 02:18:34;;;;;;;5.97;3.33;;;2.90;99.90;;;;;;5376001;26;20085;-63
2024/04/20 02:21:20;;;;;;;5.40;2.73;;;2.90;99.90;;;;;;5380525;26;20003;-63
2024/04/20 02:24:06;;;;;;;6.55;3.33;;;2.90;99.90;;;;;;5387106;26;20015;-63
2024/04/20 02:26:52;;;;;;;12.13;3.08;;;2.90;99.90;;;;;;5380274;26;20554;-63
2024/04/20 02:29:37;;;;;;;6.88;2.45;;;2.90;99.90;;;;;;5371318;26;20039;-63
2024/04/20 02:32:23;;;;;;;8.88;3.15;;;2.90;99.90;;;;;;5356031;26;20048;-63
2024/04/20 02:35:09;;;;;;;7.63;3.10;;;2.90;99.90;;;;;;5354108;26;20004;-63
2024/04/20 02:37:55;;;;;;;9.48;4.05;;;2.90;99.90;;;;;;5363055;26;20015;-63
2024/04/20 02:40:41;;;;;;;14.40;3.23;;;2.90;99.90;;;;;;5353811;26;20008;-62
2024/04/20 02:43:26;;;;;;;12.88;3.35;;;2.90;99.90;;;;;;5356873;26;20001;-63
2024/04/20 02:46:13;;;;;;;10.83;3.33;;;2.80;99.90;;;;;;5352155;26;19996;-63
2024/04/20 02:48:58;;;;;;;11.25;4.03;;;2.80;99.90;;;;;;5347969;26;20353;-63
2024/04/20 02:51:45;;;;;;;8.83;3.60;;;2.80;99.90;;;;;;5347553;26;20001;-63
2024/04/20 02:54:31;;;;;;;12.90;4.53;;;2.90;99.90;;;;;;5354174;26;20016;-63
2024/04/20 02:57:17;;;;;;;10.55;3.30;;;2.90;99.90;;;;;;5359318;26;19997;-63
2024/04/20 03:00:03;;;;;;;5.73;3.43;;;2.80;99.90;;;;;;5349846;26;20099;-63
2024/04/20 03:02:49;;;;;;;11.88;3.60;;;2.80;99.90;;;;;;5359825;26;20011;-63
2024/04/20 03:05:35;;;;;;;8.52;3.60;;;2.80;99.90;;;;;;5353840;26;20001;-63
2024/04/20 03:08:21;;;;;;;7.75;3.70;;;2.80;99.90;;;;;;5359549;26;20032;-63
2024/04/20 03:11:07;;;;;;;10.07;3.73;;;2.80;99.90;;;;;;5361356;26;20669;-63
2024/04/20 03:13:53;;;;;;;8.77;3.70;;;2.80;99.90;;;;;;5352847;26;20083;-63
2024/04/20 03:16:42;;;;;;;13.73;3.85;;;2.70;99.90;;;;;;5350860;26;20346;-63
2024/04/20 03:19:29;;;;;;;14.85;3.97;;;2.70;99.90;;;;;;5361186;26;20060;-63
2024/04/20 03:22:15;;;;;;;6.88;3.10;;;2.70;99.90;;;;;;5354149;26;20001;-63
2024/04/20 03:25:01;;;;;;;10.27;3.65;;;2.70;99.90;;;;;;5355781;26;20004;-63
2024/04/20 03:27:47;;;;;;;9.52;4.00;;;2.70;99.90;;;;;;5357622;26;20059;-63
2024/04/20 03:30:33;;;;;;;11.33;3.80;;;2.70;99.90;;;;;;5358114;26;20052;-63
2024/04/20 03:33:21;;;;;;;10.00;3.58;;;2.70;99.90;;;;;;5385886;26;20040;-63
2024/04/20 03:36:07;;;;;;;9.13;3.85;;;2.70;99.90;;;;;;5356117;26;20450;-63
2024/04/20 03:38:53;;;;;;;5.30;3.77;;;2.80;99.90;;;;;;5383347;26;20003;-63
2024/04/20 03:41:39;;;;;;;13.83;3.67;;;2.80;99.90;;;;;;5388310;26;20188;-63
2024/04/20 03:44:25;;;;;;;9.10;3.70;;;2.70;99.90;;;;;;5381130;26;20095;-63
2024/04/20 03:47:10;;;;;;;15.20;4.25;;;2.70;99.90;;;;;;5387732;26;20222;-63
2024/04/20 03:49:56;;;;;;;13.40;3.60;;;2.70;99.90;;;;;;5373894;26;19999;-63
2024/04/20 03:52:45;;;;;;;7.85;3.65;;;2.60;99.90;;;;;;5388037;26;20036;-63
2024/04/20 03:55:31;;;;;;;16.88;4.10;;;2.60;99.90;;;;;;5386744;26;20738;-63
2024/04/20 03:58:17;;;;;;;13.48;4.00;;;2.70;99.90;;;;;;5391590;26;19992;-62
2024/04/20 04:01:03;;;;;;;9.45;3.72;;;2.70;99.90;;;;;;5387916;26;20008;-62
2024/04/20 04:03:48;;;;;;;7.67;3.27;;;2.70;99.90;;;;;;5384466;26;20050;-63
2024/04/20 04:06:34;;;;;;;11.25;4.00;;;2.70;99.90;;;;;;5361274;26;20227;-62
2024/04/20 04:09:20;;;;;;;7.78;3.60;;;2.70;99.90;;;;;;5397052;26;20011;-63
2024/04/20 04:12:06;;;;;;;9.43;4.07;;;2.60;99.90;;;;;;5390102;26;20011;-63
2024/04/20 04:14:52;;;;;;;7.40;3.28;;;2.60;99.90;;;;;;5385486;26;20014;-63
2024/04/20 04:17:38;;;;;;;6.03;3.27;;;2.60;99.90;;;;;;5389501;26;20015;-63
2024/04/20 04:20:24;;;;;;;5.78;2.63;;;2.60;99.90;;;;;;5387730;26;20004;-63
2024/04/20 04:23:11;;;;;;;9.20;3.13;;;2.70;99.90;;;;;;5383288;26;20115;-63
2024/04/20 04:25:57;;;;;;;9.13;3.03;;;2.70;99.90;;;;;;5385632;26;20064;-63
2024/04/20 04:28:43;;;;;;;10.10;4.10;;;2.70;99.90;;;;;;5393222;26;20003;-63
2024/04/20 04:31:29;;;;;;;6.53;2.90;;;2.70;99.90;;;;;;5382987;26;19997;-63
2024/04/20 04:34:15;;;;;;;8.45;3.50;;;2.70;99.90;;;;;;5381852;26;20270;-63
2024/04/20 04:37:01;;;;;;;9.37;2.90;;;2.70;99.90;;;;;;5409984;26;19991;-63
2024/04/20 04:39:47;;;;;;;7.82;3.35;;;2.70;99.90;;;;;;5379498;26;20036;-63
2024/04/20 04:42:32;;;;;;;8.73;3.20;;;2.70;99.90;;;;;;5386180;26;20051;-61
2024/04/20 04:45:20;;;;;;;7.13;3.05;;;2.70;99.90;;;;;;5381552;26;20258;-63
2024/04/20 04:48:06;;;;;;;9.40;2.95;;;2.70;99.90;;;;;;5430572;21;20621;-64
2024/04/20 04:50:52;;;;;;;8.82;2.83;;;2.80;99.90;;;;;;5442484;26;20020;-64
2024/04/20 04:53:38;;;;;;;7.57;3.37;;;2.80;99.90;;;;;;5435443;26;20347;-64
2024/04/20 04:56:24;;;;;;;9.45;3.65;;;2.80;99.90;;;;;;5436029;26;20262;-64
2024/04/20 04:59:10;;;;;;;11.63;3.75;;;2.80;99.90;;;;;;5438174;26;20011;-64
2024/04/20 05:01:56;;;;;;;14.73;3.70;;;2.80;99.90;;;;;;5428965;26;20014;-64
2024/04/20 05:04:42;;;;;;;8.30;3.63;;;2.80;99.90;;;;;;5433869;26;20006;-65
2024/04/20 05:07:28;;;;;;;8.53;3.30;;;2.90;99.90;;;;;;5440197;26;20005;-65
2024/04/20 05:10:13;;;;;;;15.77;3.92;;;2.90;99.90;;;;;;5441628;26;20017;-65
2024/04/20 05:12:59;;;;;;;6.60;3.80;;;2.90;99.90;;;;;;5435184;26;20535;-64
2024/04/20 05:15:45;;;;;;;7.72;2.88;;;3.00;99.90;;;;;;5436467;26;20018;-65
2024/04/20 05:18:31;;;;;;;7.00;3.27;;;3.10;99.90;;;;;;5445335;26;20328;-64
2024/04/20 05:21:17;;;;;;;10.45;3.55;;;3.20;99.90;;;;;;5434562;26;20013;-65
2024/04/20 05:24:03;;;;;;;8.27;3.67;;;3.20;99.90;;;;;;5442410;26;20010;-65
2024/04/20 05:26:50;;;;;;;10.90;4.47;;;3.10;99.90;;;;;;5435293;26;19999;-64
2024/04/20 05:29:36;;;;;;;;;;;3.00;99.90;;;;;;5436668;26;20006;-64
2024/04/20 05:32:21;;;;;;;8.82;4.03;;;3.10;99.90;;;;;;5433440;26;20017;-65
2024/04/20 05:35:07;;;;;;;9.00;3.83;;;3.10;99.90;;;;;;5443721;26;20565;-64
2024/04/20 05:37:53;;;;;;;11.43;4.18;;;3.10;99.90;;;;;;5440103;26;20750;-64
2024/04/20 05:40:39;;;;;;;11.68;3.75;;;3.10;99.90;;;;;;5437576;26;20492;-65
2024/04/20 05:43:25;;;;;;;15.95;4.55;;;3.00;99.90;;;;;;5436724;26;20072;-65
2024/04/20 05:46:11;;;;;;;12.85;4.65;;;2.90;99.90;;;;;;5440944;26;20006;-65
2024/04/20 05:48:57;;;;;;;11.55;3.80;;;2.90;99.90;;;;;;5439742;26;19994;-65
2024/04/20 05:51:43;;;;;;;13.60;4.10;;;2.80;99.90;;;;;;5440444;26;20108;-65
2024/04/20 05:54:29;;;;;;;7.97;3.78;;;2.90;99.90;;;;;;5434164;26;20006;-64
2024/04/20 05:57:14;;;;;;;8.13;3.83;;;2.90;99.90;;;;;;5438280;26;19998;-65
2024/04/20 06:00:00;;;;;;;9.50;3.35;;;2.90;99.90;;;;;;5438503;26;19995;-65
2024/04/20 06:02:46;;;;;;;7.33;3.37;;;2.90;99.90;;;;;;5434451;26;20003;-65
2024/04/20 06:05:32;;;;;;;13.13;3.63;;;3.00;99.90;;;;;;5437750;26;19994;-65
2024/04/20 06:08:18;;;;;;;6.80;3.65;;;3.00;99.90;;;;;;5435639;26;20014;-65
2024/04/20 06:11:05;;;;;;;7.75;3.28;;;3.10;99.90;;;;;;5427047;26;20242;-65
2024/04/20 06:13:50;;;;;;;;;;;3.20;99.90;;;;;;5431288;26;19991;-65
2024/04/20 06:16:36;;;;;;;5.85;3.28;;;3.20;99.90;;;;;;5411274;26;19924;-65
2024/04/20 06:19:22;;;;;;;11.87;3.57;;;3.20;99.90;;;;;;5435038;26;20006;-65
2024/04/20 06:22:08;;;;;;;8.77;3.45;;;3.20;99.90;;;;;;5429101;26;20209;-65
2024/04/20 06:24:54;;;;;;;9.88;3.97;;;3.20;99.90;;;;;;5437970;26;19999;-65
2024/04/20 06:27:40;;;;;;;6.50;2.60;;;3.20;99.90;;;;;;5440887;26;20070;-65
2024/04/20 06:30:26;;;;;;;8.50;3.15;;;3.20;99.90;;;;;;5439122;26;20090;-65
2024/04/20 06:33:13;;;;;;;10.23;2.93;;;3.20;99.90;;;;;;5436149;26;19995;-65
2024/04/20 06:35:59;;;;;;;11.82;2.72;;;3.30;99.90;;;;;;5425822;26;20263;-65
2024/04/20 06:38:45;;;;;;;9.27;2.40;;;3.40;99.90;;;;;;5438758;26;19999;-66
2024/04/20 06:41:31;;;;;;;10.63;2.83;;;3.50;99.90;;;;;;5435305;26;20029;-65
2024/04/20 06:44:17;;;;;;;4.00;2.17;;;3.70;99.90;;;;;;5430203;26;19999;-63
2024/04/20 06:47:03;;;;;;;7.53;2.50;;;3.70;99.90;;;;;;5440041;26;20064;-64
2024/04/20 06:49:54;;;;;;;11.43;3.47;;;3.90;99.90;;;;;;5432752;26;20768;-63
2024/04/20 06:52:40;;;;;;;3.75;2.08;;;4.00;99.90;;;;;;5424268;26;20018;-62
2024/04/20 06:55:26;;;;;;;9.38;2.35;;;4.20;99.90;;;;;;5438735;26;20039;-63
2024/04/20 06:58:11;;;;;;;9.30;2.42;;;4.10;99.90;;;;;;5429479;26;19995;-62
2024/04/20 07:00:57;;;;;;;10.95;2.22;;;4.20;99.90;;;;;;5433334;26;20042;-64
2024/04/20 07:03:43;;;;;;;7.90;2.45;;;4.30;99.90;;;;;;5436891;26;20010;-63
2024/04/20 07:06:29;;;;;;;7.60;2.35;;;4.20;99.90;;;;;;5429386;26;19991;-63
2024/04/20 07:09:15;;;;;;;16.55;2.80;;;4.20;99.90;;;;;;5430115;26;19991;-63
2024/04/20 07:12:01;;;;;;;13.07;3.58;;;4.40;99.90;;;;;;5427748;26;19995;-64
2024/04/20 07:14:47;;;;;;;10.00;3.10;;;4.50;99.90;;;;;;5429503;26;20212;-65
2024/04/20 07:17:32;;;;;;;5.40;2.27;;;4.60;99.90;;;;;;5407687;26;19999;-67
2024/04/20 07:20:21;;;;;;;10.60;3.70;;;4.80;99.90;;;;;;5433675;26;20013;-65
2024/04/20 07:23:07;;;;;;;8.93;2.60;;;4.80;99.90;;;;;;5435958;26;20026;-65
2024/04/20 07:26:04;;;;;;;8.95;2.85;;;5.00;99.90;;;;;;5433242;26;20003;-65
2024/04/20 07:28:50;;;;;;;10.95;3.13;;;5.00;99.90;;;;;;5435298;26;20009;-65
2024/04/20 07:31:36;;;;;;;12.33;2.70;;;5.00;99.90;;;;;;5439139;26;20071;-65
2024/04/20 07:34:29;;;;;;;5.80;2.80;;;5.00;99.90;;;;;;5434062;26;20227;-65
2024/04/20 07:37:15;;;;;;;12.55;3.03;;;4.90;99.90;;;;;;5439151;26;20031;-64
2024/04/20 07:40:01;;;;;;;7.90;2.77;;;4.80;99.90;;;;;;5438195;26;20499;-65
2024/04/20 07:42:47;;;;;;;18.60;3.90;;;4.70;99.90;;;;;;5413462;26;19995;-65
2024/04/20 07:45:33;;;;;;;10.45;3.05;;;4.50;99.90;;;;;;5443856;26;20212;-65
2024/04/20 07:48:19;;;;;;;4.75;2.45;;;4.50;99.90;;;;;;5436649;26;20014;-64
2024/04/20 07:51:04;;;;;;;8.67;2.60;;;4.50;99.90;;;;;;5429243;26;20031;-65
2024/04/20 07:53:50;;;;;;;9.32;2.45;;;4.50;99.90;;;;;;5433535;26;20204;-65
2024/04/20 07:56:36;;;;;;;12.50;2.90;;;4.70;99.90;;;;;;5438327;26;20804;-64
2024/04/20 07:59:22;;;;;;;9.13;3.10;;;4.60;99.90;;;;;;5439235;26;20010;-65
2024/04/20 08:02:09;;;;;;;17.65;3.15;;;4.60;99.90;;;;;;5437392;26;20017;-64
2024/04/20 08:04:55;;;;;;;10.35;2.78;;;4.70;99.90;;;;;;5443639;26;20456;-65
2024/04/20 08:07:40;;;;;;;14.70;3.10;;;4.70;99.90;;;;;;5437274;26;20027;-65
2024/04/20 08:10:26;;;;;;;9.05;2.92;;;4.60;99.90;;;;;;5438465;26;20003;-65
2024/04/20 08:13:12;;;;;;;5.27;2.13;;;4.50;99.90;;;;;;5439873;26;20017;-65
2024/04/20 08:15:58;;;;;;;7.78;2.38;;;4.60;99.90;;;;;;5434672;26;20209;-64
2024/04/20 08:18:45;;;;;;;13.35;4.13;;;4.80;99.90;;;;;;5432463;26;20273;-64
2024/04/20 08:21:31;;;;;;;11.80;3.28;;;4.80;99.90;;;;;;5440785;26;20007;-64
2024/04/20 08:24:17;;;;;;;6.67;2.70;;;4.90;99.90;;;;;;5439050;26;20054;-64
2024/04/20 08:27:03;;;;;;;10.87;2.90;;;4.90;99.90;;;;;;5440142;26;20018;-64
2024/04/20 08:29:48;;;;;;;7.63;2.80;;;5.00;99.90;;;;;;5429289;26;20003;-64
2024/04/20 08:32:34;;;;;;;7.57;2.15;;;5.10;99.90;;;;;;5434570;26;19991;-64
2024/04/20 08:35:20;;;;;;;7.93;2.20;;;5.10;99.90;;;;;;5439864;26;19999;-64
2024/04/20 08:38:06;;;;;;;9.02;2.75;;;5.10;99.90;;;;;;5439654;26;20010;-63
2024/04/20 08:40:59;;;;;;;9.20;2.67;;;5.10;99.90;;;;;;5433881;26;20912;-63
2024/04/20 08:43:45;;;;;;;6.25;2.10;;;5.00;99.90;;;;;;5435111;26;20013;-63
2024/04/20 08:46:31;;;;;;;9.00;2.58;;;4.90;99.90;;;;;;5439413;26;20007;-63
2024/04/20 08:49:20;;;;;;;8.40;2.60;;;4.90;99.90;;;;;;5437947;26;19994;-63
2024/04/20 08:52:06;;;;;;;8.70;2.38;;;4.90;99.90;;;;;;5437861;26;20003;-63
2024/04/20 08:54:56;;;;;;;9.20;2.27;;;4.90;99.90;;;;;;5405565;26;20360;-64
2024/04/20 08:57:42;;;;;;;8.38;2.50;;;5.10;99.90;;;;;;5438229;26;20006;-64
2024/04/20 09:00:33;;;;;;;6.38;2.08;;;5.20;99.90;;;;;;5415627;26;20030;-64
2024/04/20 09:03:19;;;;;;;14.02;2.45;;;5.60;99.90;;;;;;5438496;26;20605;-64
2024/04/20 09:06:07;;;;;;;7.28;2.75;;;5.70;99.90;;;;;;5437342;26;20086;-64
2024/04/20 09:08:55;;;;;;;8.30;1.83;;;5.70;99.90;;;;;;5437353;26;19999;-64
2024/04/20 09:11:41;;;;;;;8.80;1.80;;;5.60;99.90;;;;;;5435839;26;19991;-64
2024/04/20 09:14:28;;;;;;;6.13;2.40;;;5.70;99.90;;;;;;5416181;26;20087;-64
2024/04/20 09:17:14;;;;;;;8.35;1.90;;;5.90;99.90;;;;;;5442839;26;20022;-64
2024/04/20 09:20:01;;;;;;;6.90;1.98;;;6.20;99.90;;;;;;5407411;26;20014;-64
2024/04/20 09:22:47;;;;;;;10.55;2.00;;;6.30;99.90;;;;;;5440172;26;19995;-64
2024/04/20 09:25:34;;;;;;;8.70;1.87;;;6.10;99.90;;;;;;5431977;26;20075;-64
2024/04/20 09:28:21;;;;;;;6.75;1.80;;;6.10;99.90;;;;;;5437877;26;20359;-64
2024/04/20 09:31:10;;;;;;;6.03;1.52;;;6.10;99.90;;;;;;5437447;26;20087;-64
2024/04/20 09:33:56;;;;;;;4.60;1.90;;;6.30;99.90;;;;;;5441544;26;20036;-64
2024/04/20 09:36:42;;;;;;;3.23;1.40;;;6.40;99.90;;;;;;5437705;26;20075;-64
2024/04/20 09:39:28;;;;;;;7.95;1.95;;;6.60;99.90;;;;;;5441787;26;20014;-64
2024/04/20 09:42:17;;;;;;;5.15;1.48;;;6.60;99.90;;;;;;5432019;26;20031;-64
2024/04/20 09:45:06;;;;;;;4.45;1.67;;;6.80;99.90;;;;;;5441926;26;20014;-64
2024/04/20 09:47:55;;;;;;;12.95;1.65;;;7.10;99.90;;;;;;5437204;26;20463;-64
2024/04/20 09:50:48;;;;;;;4.45;1.45;;;7.40;99.90;;;;;;5437398;26;19991;-65
2024/04/20 09:53:34;;;;;;;9.23;2.33;;;7.30;99.90;;;;;;5426920;26;20009;-64
2024/04/20 09:56:20;;;;;;;3.83;1.23;;;6.90;99.90;;;;;;5441748;26;20013;-64
2024/04/20 09:59:07;;;;;;;7.65;1.80;;;7.00;99.90;;;;;;5438780;26;20027;-65
2024/04/20 10:01:54;;;;;;;3.88;1.65;;;7.00;99.90;;;;;;5427264;26;20009;-65
2024/04/20 10:04:40;;;;;;;4.35;1.50;;;6.90;99.90;;;;;;5400922;26;20097;-64
2024/04/20 10:07:32;;;;;;;4.43;1.60;;;6.40;99.90;;;;;;5440664;26;20006;-65
2024/04/20 10:10:25;;;;;;;6.45;2.00;;;6.40;99.90;;;;;;5436901;26;20011;-65
2024/04/20 10:13:14;;;;;;;11.85;1.80;;;6.30;99.90;;;;;;5433244;26;20208;-65
2024/04/20 10:16:01;;;;;;;4.18;1.40;;;6.40;99.90;;;;;;5411900;26;20554;-64
2024/04/20 10:18:47;;;;;;;;;;;6.60;99.90;;;;;;5431762;26;19994;-65
2024/04/20 10:21:34;;;;;;;3.20;1.75;;;6.80;99.90;;;;;;5439945;26;20577;-65
2024/04/20 10:24:19;;;;;;;5.55;1.52;;;6.60;99.90;;;;;;5433940;26;20010;-65
2024/04/20 10:27:05;;;;;;;9.68;1.83;;;6.50;99.90;;;;;;5413515;26;20136;-65
2024/04/20 10:29:51;;;;;;;4.25;1.73;;;6.60;99.90;;;;;;5418364;26;20093;-65
2024/04/20 10:32:37;;;;;;;5.60;1.88;;;6.50;99.90;;;;;;5433160;26;20051;-65
2024/04/20 10:35:23;;;;;;;8.13;1.60;;;7.00;99.90;;;;;;5438389;26;20019;-65
2024/04/20 10:38:09;;;;;;;6.72;1.73;;;7.30;99.90;;;;;;5417486;26;21947;-64
2024/04/20 10:40:55;;;;;;;3.97;1.63;;;7.50;99.90;;;;;;5441718;26;20107;-65
2024/04/20 10:43:46;;;;;;;4.25;1.23;;;7.50;99.90;;;;;;5423952;26;20267;-65
2024/04/20 10:46:32;;;;;;;6.32;1.58;;;7.30;99.90;;;;;;5440333;26;20117;-65
2024/04/20 10:49:18;;;;;;;6.07;1.52;;;7.10;99.90;;;;;;5442888;26;19998;-64
2024/04/20 10:52:04;;;;;;;6.53;1.73;;;7.30;99.90;;;;;;5440261;26;20013;-65
2024/04/20 10:54:50;;;;;;;3.05;1.85;;;7.50;99.90;;;;;;5433365;26;20452;-65
2024/04/20 10:57:35;;;;;;;4.97;2.15;;;7.30;99.90;;;;;;5437564;26;20694;-65
2024/04/20 11:00:22;;;;;;;4.40;2.00;;;7.10;99.90;;;;;;5430001;21;20024;-64
2024/04/20 11:03:11;;;;;;;6.28;1.85;;;7.00;99.90;;;;;;5319414;26;20005;-63
2024/04/20 11:05:58;;;;;;;5.55;2.03;;;6.90;99.90;;;;;;5325172;26;19997;-63
2024/04/20 11:08:47;;;;;;;3.22;1.48;;;7.00;99.90;;;;;;5313818;26;20001;-63
2024/04/20 11:11:33;;;;;;;6.47;1.75;;;7.10;99.90;;;;;;5323521;26;20335;-64
2024/04/20 11:14:19;;;;;;;4.43;1.60;;;7.10;99.90;;;;;;5313772;26;20684;-64
2024/04/20 11:17:06;;;;;;;2.78;1.88;;;7.30;99.90;;;;;;5321159;26;20691;-64
2024/04/20 11:19:52;;;;;;;3.53;1.60;;;7.30;99.90;;;;;;5309124;26;20020;-64
2024/04/20 11:22:38;;;;;;;5.72;1.60;;;7.40;99.90;;;;;;5317596;26;20020;-64
2024/04/20 11:25:24;;;;;;;5.65;1.88;;;7.70;99.90;;;;;;5303014;26;20017;-64
2024/04/20 11:28:09;;;;;;;1.77;1.27;;;7.60;99.90;;;;;;5305897;26;20008;-64
2024/04/20 11:30:55;;;;;;;5.05;1.38;;;7.60;99.90;;;;;;5324172;26;20023;-63
2024/04/20 11:33:47;;;;;;;2.20;1.27;;;7.40;99.90;;;;;;5343784;26;19993;-63
2024/04/20 11:36:38;;;;;;;4.47;1.65;;;7.10;99.90;;;;;;5346198;26;20481;-63
2024/04/20 11:39:24;;;;;;;3.50;1.70;;;7.20;99.90;;;;;;5340194;26;20005;-63
2024/04/20 11:42:10;;;;;;;10.50;1.50;;;7.20;99.90;;;;;;5353212;26;20019;-64
2024/04/20 11:44:56;;;;;;;3.15;1.40;;;7.40;99.90;;;;;;5338520;26;20015;-64
2024/04/20 11:47:42;;;;;;;7.30;1.20;;;7.30;99.90;;;;;;5341911;26;20353;-64
2024/04/20 11:50:32;;;;;;;7.60;1.60;;;7.40;99.90;;;;;;5352157;26;20016;-64
2024/04/20 11:56:22;;;;;;;6.13;1.17;;;7.70;99.90;;;;;;5363629;26;20027;-64
2024/04/20 11:59:12;;;;;;;6.35;1.48;;;8.00;99.90;;;;;;5342200;26;20001;-64
2024/04/20 12:01:58;;;;;;;7.18;1.15;;;8.10;99.90;;;;;;5341207;26;20723;-64
2024/04/20 12:04:45;;;;;;;4.63;1.00;;;8.00;99.90;;;;;;5347451;26;20462;-64
2024/04/20 12:07:33;;;;;;;2.97;1.05;;;7.90;99.90;;;;;;5346634;26;20000;-64
2024/04/20 12:10:19;;;;;;;4.82;1.17;;;7.80;99.90;;;;;;5340679;26;20784;-64
2024/04/20 12:13:05;;;;;;;6.50;1.55;;;7.70;99.90;;;;;;5352534;26;20044;-64
2024/04/20 12:15:51;;;;;;;2.28;1.30;;;7.50;99.90;;;;;;5357608;26;20011;-64
2024/04/20 12:18:38;;;;;;;5.88;1.00;;;7.50;99.90;;;;;;5339881;26;20009;-64
2024/04/20 12:21:23;;;;;;;3.60;0.93;;;7.50;99.90;;;;;;5357253;26;20001;-64
2024/04/20 12:24:09;;;;;;;4.10;1.25;;;7.70;99.90;;;;;;5342790;26;20449;-64
2024/04/20 12:26:55;;;;;;;1.48;0.95;;;8.00;99.90;;;;;;5358431;26;20000;-64
2024/04/20 12:29:41;;;;;;;4.00;1.45;;;8.40;99.90;;;;;;5343719;26;20020;-64
2024/04/20 12:32:27;;;;;;;2.67;1.10;;;8.40;99.90;;;;;;5344207;26;20078;-64
2024/04/20 12:35:13;;;;;;;4.28;1.20;;;8.40;99.90;;;;;;5347277;26;20036;-64
2024/04/20 12:37:58;;;;;;;2.90;1.30;;;8.40;99.90;;;;;;5352193;26;20000;-64
2024/04/20 12:40:45;;;;;;;2.60;1.20;;;8.30;99.90;;;;;;5352054;26;20347;-64
2024/04/20 12:43:31;;;;;;;1.98;0.90;;;8.10;99.90;;;;;;5347945;26;19996;-64
2024/04/20 12:46:17;;;;;;;3.00;0.63;;;7.90;99.90;;;;;;5361446;26;20001;-64
2024/04/20 12:49:03;;;;;;;4.88;1.13;;;7.70;99.90;;;;;;5355065;26;20052;-64
2024/04/20 12:51:49;;;;;;;3.72;0.88;;;7.80;99.90;;;;;;5350698;26;20472;-64
2024/04/20 12:54:35;;;;;;;2.17;0.82;;;7.90;99.90;;;;;;5345655;26;19996;-64
2024/04/20 12:57:22;;;;;;;5.40;1.02;;;8.30;99.90;;;;;;5362093;26;19996;-64
2024/04/20 13:00:09;;;;;;;3.13;0.90;;;8.70;99.90;;;;;;5316469;26;20000;-64
2024/04/20 13:02:55;;;;;;;2.45;0.80;;;9.00;99.90;;;;;;5347303;26;20318;-63
2024/04/20 13:05:40;;;;;;;3.38;0.98;;;8.80;99.90;;;;;;5347378;26;19992;-63
2024/04/20 13:08:26;;;;;;;2.08;1.00;;;8.50;99.90;;;;;;5354410;26;20024;-63
2024/04/20 13:11:15;;;;;;;1.48;0.80;;;8.50;99.90;;;;;;5346884;26;20000;-63
2024/04/20 13:14:01;;;;;;;2.00;0.88;;;8.50;99.90;;;;;;5340229;26;20080;-64
2024/04/20 13:16:47;;;;;;;1.25;0.80;;;8.30;99.90;;;;;;5358613;26;20558;-63
2024/04/20 13:19:33;;;;;;;2.80;0.88;;;8.20;99.90;;;;;;5350703;26;20011;-64
2024/04/20 13:22:18;;;;;;;2.67;0.80;;;8.10;99.90;;;;;;5349592;26;20001;-64
2024/04/20 13:25:04;;;;;;;3.25;0.95;;;8.30;99.90;;;;;;5353934;26;20012;-63
2024/04/20 13:27:50;;;;;;;1.13;0.50;;;8.70;99.90;;;;;;5341742;26;19992;-63
2024/04/20 13:30:36;;;;;;;4.43;1.08;;;8.80;99.90;;;;;;5358279;26;20373;-63
2024/04/20 13:33:23;;;;;;;3.47;0.70;;;8.90;99.90;;;;;;5337675;26;20373;-63
2024/04/20 13:36:08;;;;;;;1.48;0.50;;;9.00;99.90;;;;;;5356659;26;20004;-63
2024/04/20 13:38:55;;;;;;;3.30;0.70;;;9.10;99.90;;;;;;5359581;26;19996;-63
2024/04/20 13:41:41;;;;;;;1.00;0.57;;;9.10;99.90;;;;;;5359141;26;20077;-64
2024/04/20 13:44:27;;;;;;;1.02;0.40;;;9.00;99.90;;;;;;5346426;26;20729;-63
2024/04/20 13:47:12;;;;;;;0.60;0.52;;;9.30;99.90;;;;;;5363642;26;20014;-63
2024/04/20 13:49:58;;;;;;;1.30;0.40;;;9.00;99.90;;;;;;5352765;26;20004;-64
2024/04/20 13:52:44;;;;;;;1.60;0.45;;;8.60;99.90;;;;;;5357450;26;20016;-63
2024/04/20 13:55:31;;;;;;;1.15;0.50;;;8.50;99.90;;;;;;5356058;26;20004;-63
2024/04/20 13:58:17;;;;;;;1.58;0.50;;;8.50;99.90;;;;;;5347275;26;20000;-63
2024/04/20 14:01:03;;;;;;;1.42;0.47;;;8.30;99.90;;;;;;5346708;26;20040;-63
2024/04/20 14:03:49;;;;;;;1.43;0.60;;;8.50;99.90;;;;;;5351457;26;20548;-63
2024/04/20 14:06:35;;;;;;;1.27;0.67;;;8.50;99.90;;;;;;5359383;26;20009;-63
2024/04/20 14:09:21;;;;;;;0.90;0.50;;;8.70;99.90;;;;;;5352273;26;20019;-63
2024/04/20 14:12:10;;;;;;;2.95;0.50;;;8.90;99.90;;;;;;5349607;26;20061;-63
2024/04/20 14:14:56;;;;;;;2.70;0.50;;;9.20;99.90;;;;;;5339700;26;19997;-63
2024/04/20 14:17:42;;;;;;;4.63;0.70;;;9.20;99.90;;;;;;5360542;26;19997;-63
2024/04/20 14:20:27;;;;;;;0.70;0.35;;;8.90;99.90;;;;;;5346723;26;20278;-63
2024/04/20 14:23:13;;;;;;;2.75;0.52;;;8.70;99.90;;;;;;5364316;26;20015;-63
2024/04/20 14:26:01;;;;;;;1.85;0.60;;;8.80;99.90;;;;;;5367409;26;20027;-64
2024/04/20 14:28:46;;;;;;;1.02;0.55;;;8.60;99.90;;;;;;5343673;26;19996;-63
2024/04/20 14:31:32;;;;;;;2.90;0.50;;;8.60;99.90;;;;;;5359949;26;20017;-63
2024/04/20 14:34:18;;;;;;;2.67;0.52;;;8.60;99.90;;;;;;5363929;26;20001;-63
2024/04/20 14:37:04;;;;;;;3.15;0.55;;;8.60;99.90;;;;;;5365481;26;20449;-63